sensor_id;sensor_type;location;lat;lon;timestamp;pressure;altitude;pressure_sealevel;temperature;humidity
8049;BME280;20935;42.660;23.342;2023-03-04T00:02:11;65502.94;;;-143.54;100.00
8049;BME280;20935;42.660;23.342;2023-03-04T00:04:57;65502.94;;;-143.54;100.00
8049;BME280;20935;42.660;23.342;2023-03-04T00:07:42;65502.94;;;-143.54;100.00
8049;BME280;20935;42.660;23.342;2023-03-04T00:10:28;65502.94;;;-143.54;100.00
8049;BME280;20935;42.660;23.342;2023-03-04T00:13:13;65502.94;;;-143.54;100.00
8049;BME280;20935;42.660;23.342;2023-03-04T00:16:01;65502.94;;;-143.54;100.00
8049;BME280;20935;42.660;23.342;2023-03-04T00:18:47;65502.94;;;-143.54;100.00
8049;BME280;20935;42.660;23.342;2023-03-04T00:21:32;65502.94;;;-143.54;100.00
8049;BME280;20935;42.660;23.342;2023-03-04T00:24:18;65502.94;;;-143.54;100.00
8049;BME280;20935;42.660;23.342;2023-03-04T00:27:03;65502.94;;;-143.54;100.00
8049;BME280;20935;42.660;23.342;2023-03-04T00:29:48;65502.94;;;-143.54;100.00
8049;BME280;20935;42.660;23.342;2023-03-04T00:32:35;65502.94;;;-143.54;100.00
8049;BME280;20935;42.660;23.342;2023-03-04T00:35:21;65502.94;;;-143.54;100.00
8049;BME280;20935;42.660;23.342;2023-03-04T00:38:06;65502.94;;;-143.54;100.00
8049;BME280;20935;42.660;23.342;2023-03-04T00:40:52;65502.94;;;-143.54;100.00
8049;BME280;20935;42.660;23.342;2023-03-04T00:43:37;65502.94;;;-143.54;100.00
8049;BME280;20935;42.660;23.342;2023-03-04T00:46:23;65502.94;;;-143.54;100.00
8049;BME280;20935;42.660;23.342;2023-03-04T00:49:10;65502.94;;;-143.54;100.00
8049;BME280;20935;42.660;23.342;2023-03-04T00:51:55;65502.94;;;-143.54;100.00
8049;BME280;20935;42.660;23.342;2023-03-04T00:54:41;65502.94;;;-143.54;100.00
8049;BME280;20935;42.660;23.342;2023-03-04T00:57:26;65502.94;;;-143.54;100.00
8049;BME280;20935;42.660;23.342;2023-03-04T01:00:12;65502.94;;;-143.54;100.00
8049;BME280;20935;42.660;23.342;2023-03-04T01:02:58;65502.94;;;-143.54;100.00
8049;BME280;20935;42.660;23.342;2023-03-04T01:05:45;65502.94;;;-143.54;100.00
8049;BME280;20935;42.660;23.342;2023-03-04T01:08:30;65502.94;;;-143.54;100.00
8049;BME280;20935;42.660;23.342;2023-03-04T01:11:16;65502.94;;;-143.54;100.00
8049;BME280;20935;42.660;23.342;2023-03-04T01:14:01;65502.94;;;-143.54;100.00
8049;BME280;20935;42.660;23.342;2023-03-04T01:16:47;65502.94;;;-143.54;100.00
8049;BME280;20935;42.660;23.342;2023-03-04T01:19:32;65502.94;;;-143.54;100.00
8049;BME280;20935;42.660;23.342;2023-03-04T01:22:19;65502.94;;;-143.54;100.00
8049;BME280;20935;42.660;23.342;2023-03-04T01:25:05;65502.94;;;-143.54;100.00
8049;BME280;20935;42.660;23.342;2023-03-04T01:27:50;65502.94;;;-143.54;100.00
8049;BME280;20935;42.660;23.342;2023-03-04T01:30:36;65502.94;;;-143.54;100.00
8049;BME280;20935;42.660;23.342;2023-03-04T01:33:22;65502.94;;;-143.54;100.00
8049;BME280;20935;42.660;23.342;2023-03-04T01:36:07;65502.94;;;-143.54;100.00
8049;BME280;20935;42.660;23.342;2023-03-04T01:38:54;65502.94;;;-143.54;100.00
8049;BME280;20935;42.660;23.342;2023-03-04T01:41:40;65502.94;;;-143.54;100.00
8049;BME280;20935;42.660;23.342;2023-03-04T01:44:26;65502.94;;;-143.54;100.00
8049;BME280;20935;42.660;23.342;2023-03-04T01:47:13;65502.94;;;-143.54;100.00
8049;BME280;20935;42.660;23.342;2023-03-04T01:50:00;65502.94;;;-143.54;100.00
8049;BME280;20935;42.660;23.342;2023-03-04T01:52:47;65502.94;;;-143.54;100.00
8049;BME280;20935;42.660;23.342;2023-03-04T01:55:36;65502.94;;;-143.54;100.00
8049;BME280;20935;42.660;23.342;2023-03-04T01:58:23;65502.94;;;-143.54;100.00
8049;BME280;20935;42.660;23.342;2023-03-04T02:01:10;65502.94;;;-143.54;100.00
8049;BME280;20935;42.660;23.342;2023-03-04T02:03:56;65502.94;;;-143.54;100.00
8049;BME280;20935;42.660;23.342;2023-03-04T02:06:41;65502.94;;;-143.54;100.00
8049;BME280;20935;42.660;23.342;2023-03-04T02:09:27;65502.94;;;-143.54;100.00
8049;BME280;20935;42.660;23.342;2023-03-04T02:12:15;65502.94;;;-143.54;100.00
8049;BME280;20935;42.660;23.342;2023-03-04T02:15:02;65502.94;;;-143.54;100.00
8049;BME280;20935;42.660;23.342;2023-03-04T02:17:48;65502.94;;;-143.54;100.00
8049;BME280;20935;42.660;23.342;2023-03-04T02:20:37;65502.94;;;-143.54;100.00
8049;BME280;20935;42.660;23.342;2023-03-04T02:23:32;65502.94;;;-143.54;100.00
8049;BME280;20935;42.660;23.342;2023-03-04T02:26:23;65502.94;;;-143.54;100.00
8049;BME280;20935;42.660;23.342;2023-03-04T02:29:10;65502.94;;;-143.54;100.00
8049;BME280;20935;42.660;23.342;2023-03-04T02:31:56;65502.94;;;-143.54;100.00
8049;BME280;20935;42.660;23.342;2023-03-04T02:34:45;65502.94;;;-143.54;100.00
8049;BME280;20935;42.660;23.342;2023-03-04T02:37:31;65502.94;;;-143.54;100.00
8049;BME280;20935;42.660;23.342;2023-03-04T02:40:22;65502.94;;;-143.54;100.00
8049;BME280;20935;42.660;23.342;2023-03-04T02:43:10;65502.94;;;-143.54;100.00
8049;BME280;20935;42.660;23.342;2023-03-04T02:45:55;65502.94;;;-143.54;100.00
8049;BME280;20935;42.660;23.342;2023-03-04T02:48:41;65502.94;;;-143.54;100.00
8049;BME280;20935;42.660;23.342;2023-03-04T02:51:29;65502.94;;;-143.54;100.00
8049;BME280;20935;42.660;23.342;2023-03-04T02:54:15;65502.94;;;-143.54;100.00
8049;BME280;20935;42.660;23.342;2023-03-04T02:57:04;65502.94;;;-143.54;100.00
8049;BME280;20935;42.660;23.342;2023-03-04T02:59:51;65502.94;;;-143.54;100.00
8049;BME280;20935;42.660;23.342;2023-03-04T03:02:37;65502.94;;;-143.54;100.00
8049;BME280;20935;42.660;23.342;2023-03-04T03:05:23;65502.94;;;-143.54;100.00
8049;BME280;20935;42.660;23.342;2023-03-04T03:08:10;65502.94;;;-143.54;100.00
8049;BME280;20935;42.660;23.342;2023-03-04T03:10:55;65502.94;;;-143.54;100.00
8049;BME280;20935;42.660;23.342;2023-03-04T03:13:41;65502.94;;;-143.54;100.00
8049;BME280;20935;42.660;23.342;2023-03-04T03:16:28;65502.94;;;-143.54;100.00
8049;BME280;20935;42.660;23.342;2023-03-04T03:19:13;65502.94;;;-143.54;100.00
8049;BME280;20935;42.660;23.342;2023-03-04T03:21:59;65502.94;;;-143.54;100.00
8049;BME280;20935;42.660;23.342;2023-03-04T03:24:44;65502.94;;;-143.54;100.00
8049;BME280;20935;42.660;23.342;2023-03-04T03:27:30;65502.94;;;-143.54;100.00
8049;BME280;20935;42.660;23.342;2023-03-04T03:30:15;65502.94;;;-143.54;100.00
8049;BME280;20935;42.660;23.342;2023-03-04T03:33:03;65502.94;;;-143.54;100.00
8049;BME280;20935;42.660;23.342;2023-03-04T03:35:48;65502.94;;;-143.54;100.00
8049;BME280;20935;42.660;23.342;2023-03-04T03:38:34;65502.94;;;-143.54;100.00
8049;BME280;20935;42.660;23.342;2023-03-04T03:41:19;65502.94;;;-143.54;100.00
8049;BME280;20935;42.660;23.342;2023-03-04T03:44:05;65502.94;;;-143.54;100.00
8049;BME280;20935;42.660;23.342;2023-03-04T03:46:50;65502.94;;;-143.54;100.00
8049;BME280;20935;42.660;23.342;2023-03-04T03:49:37;65502.94;;;-143.54;100.00
8049;BME280;20935;42.660;23.342;2023-03-04T03:52:22;65502.94;;;-143.54;100.00
8049;BME280;20935;42.660;23.342;2023-03-04T03:55:08;65502.94;;;-143.54;100.00
8049;BME280;20935;42.660;23.342;2023-03-04T03:57:54;65502.94;;;-143.54;100.00
8049;BME280;20935;42.660;23.342;2023-03-04T04:00:39;65502.94;;;-143.54;100.00
8049;BME280;20935;42.660;23.342;2023-03-04T04:03:25;65502.94;;;-143.54;100.00
8049;BME280;20935;42.660;23.342;2023-03-04T04:06:11;65502.94;;;-143.54;100.00
8049;BME280;20935;42.660;23.342;2023-03-04T04:08:57;65502.94;;;-143.54;100.00
8049;BME280;20935;42.660;23.342;2023-03-04T04:11:42;65502.94;;;-143.54;100.00
8049;BME280;20935;42.660;23.342;2023-03-04T04:14:28;65502.94;;;-143.54;100.00
8049;BME280;20935;42.660;23.342;2023-03-04T04:17:13;65502.94;;;-143.54;100.00
8049;BME280;20935;42.660;23.342;2023-03-04T04:19:59;65502.94;;;-143.54;100.00
8049;BME280;20935;42.660;23.342;2023-03-04T04:22:45;65502.94;;;-143.54;100.00
8049;BME280;20935;42.660;23.342;2023-03-04T04:25:31;65502.94;;;-143.54;100.00
8049;BME280;20935;42.660;23.342;2023-03-04T04:28:17;65502.94;;;-143.54;100.00
8049;BME280;20935;42.660;23.342;2023-03-04T04:31:06;65502.94;;;-143.54;100.00
8049;BME280;20935;42.660;23.342;2023-03-04T04:33:52;65502.94;;;-143.54;100.00
8049;BME280;20935;42.660;23.342;2023-03-04T04:36:37;65502.94;;;-143.54;100.00
8049;BME280;20935;42.660;23.342;2023-03-04T04:39:24;65502.94;;;-143.54;100.00
8049;BME280;20935;42.660;23.342;2023-03-04T04:42:10;65502.94;;;-143.54;100.00
8049;BME280;20935;42.660;23.342;2023-03-04T04:44:56;65502.94;;;-143.54;100.00
8049;BME280;20935;42.660;23.342;2023-03-04T04:47:41;65502.94;;;-143.54;100.00
8049;BME280;20935;42.660;23.342;2023-03-04T04:50:26;65502.94;;;-143.54;100.00
8049;BME280;20935;42.660;23.342;2023-03-04T04:53:12;65502.94;;;-143.54;100.00
8049;BME280;20935;42.660;23.342;2023-03-04T04:55:59;65502.94;;;-143.54;100.00
8049;BME280;20935;42.660;23.342;2023-03-04T04:58:45;65502.94;;;-143.54;100.00
8049;BME280;20935;42.660;23.342;2023-03-04T05:01:31;65502.94;;;-143.54;100.00
8049;BME280;20935;42.660;23.342;2023-03-04T05:04:16;65502.94;;;-143.54;100.00
8049;BME280;20935;42.660;23.342;2023-03-04T05:07:02;65502.94;;;-143.54;100.00
8049;BME280;20935;42.660;23.342;2023-03-04T05:09:48;65502.94;;;-143.54;100.00
8049;BME280;20935;42.660;23.342;2023-03-04T05:12:37;65502.94;;;-143.54;100.00
8049;BME280;20935;42.660;23.342;2023-03-04T05:15:23;65502.94;;;-143.54;100.00
8049;BME280;20935;42.660;23.342;2023-03-04T05:18:11;65502.94;;;-143.54;100.00
8049;BME280;20935;42.660;23.342;2023-03-04T05:20:58;65502.94;;;-143.54;100.00
8049;BME280;20935;42.660;23.342;2023-03-04T05:23:45;65502.94;;;-143.54;100.00
8049;BME280;20935;42.660;23.342;2023-03-04T05:26:30;65502.94;;;-143.54;100.00
8049;BME280;20935;42.660;23.342;2023-03-04T05:29:17;65502.94;;;-143.54;100.00
8049;BME280;20935;42.660;23.342;2023-03-04T05:32:02;65502.94;;;-143.54;100.00
8049;BME280;20935;42.660;23.342;2023-03-04T05:34:48;65502.94;;;-143.54;100.00
8049;BME280;20935;42.660;23.342;2023-03-04T05:37:34;65502.94;;;-143.54;100.00
8049;BME280;20935;42.660;23.342;2023-03-04T05:40:19;65502.94;;;-143.54;100.00
8049;BME280;20935;42.660;23.342;2023-03-04T05:43:04;65502.94;;;-143.54;100.00
8049;BME280;20935;42.660;23.342;2023-03-04T05:45:51;65502.94;;;-143.54;100.00
8049;BME280;20935;42.660;23.342;2023-03-04T05:48:36;65502.94;;;-143.54;100.00
8049;BME280;20935;42.660;23.342;2023-03-04T05:51:22;65502.94;;;-143.54;100.00
8049;BME280;20935;42.660;23.342;2023-03-04T05:54:08;65502.94;;;-143.54;100.00
8049;BME280;20935;42.660;23.342;2023-03-04T05:56:53;65502.94;;;-143.54;100.00
8049;BME280;20935;42.660;23.342;2023-03-04T05:59:38;65502.94;;;-143.54;100.00
8049;BME280;20935;42.660;23.342;2023-03-04T06:02:26;65502.94;;;-143.54;100.00
8049;BME280;20935;42.660;23.342;2023-03-04T06:05:12;65502.94;;;-143.54;100.00
8049;BME280;20935;42.660;23.342;2023-03-04T06:07:58;65502.94;;;-143.54;100.00
8049;BME280;20935;42.660;23.342;2023-03-04T06:10:43;65502.94;;;-143.54;100.00
8049;BME280;20935;42.660;23.342;2023-03-04T06:13:29;65502.94;;;-143.54;100.00
8049;BME280;20935;42.660;23.342;2023-03-04T06:16:14;65502.94;;;-143.54;100.00
8049;BME280;20935;42.660;23.342;2023-03-04T06:19:01;65502.94;;;-143.54;100.00
8049;BME280;20935;42.660;23.342;2023-03-04T06:21:46;65502.94;;;-143.54;100.00
8049;BME280;20935;42.660;23.342;2023-03-04T06:24:32;65502.94;;;-143.54;100.00
8049;BME280;20935;42.660;23.342;2023-03-04T06:27:17;65502.94;;;-143.54;100.00
8049;BME280;20935;42.660;23.342;2023-03-04T06:30:04;65502.94;;;-143.54;100.00
8049;BME280;20935;42.660;23.342;2023-03-04T06:32:49;65502.94;;;-143.54;100.00
8049;BME280;20935;42.660;23.342;2023-03-04T06:35:36;65502.94;;;-143.54;100.00
8049;BME280;20935;42.660;23.342;2023-03-04T06:38:22;65502.94;;;-143.54;100.00
8049;BME280;20935;42.660;23.342;2023-03-04T06:41:10;65502.94;;;-143.54;100.00
8049;BME280;20935;42.660;23.342;2023-03-04T06:43:56;65502.94;;;-143.54;100.00
8049;BME280;20935;42.660;23.342;2023-03-04T06:46:42;65502.94;;;-143.54;100.00
8049;BME280;20935;42.660;23.342;2023-03-04T06:49:27;65502.94;;;-143.54;100.00
8049;BME280;20935;42.660;23.342;2023-03-04T06:52:14;65502.94;;;-143.54;100.00
8049;BME280;20935;42.660;23.342;2023-03-04T06:54:59;65502.94;;;-143.54;100.00
8049;BME280;20935;42.660;23.342;2023-03-04T06:57:45;65502.94;;;-143.54;100.00
8049;BME280;20935;42.660;23.342;2023-03-04T07:00:30;65502.94;;;-143.54;100.00
8049;BME280;20935;42.660;23.342;2023-03-04T07:03:16;65502.94;;;-143.54;100.00
8049;BME280;20935;42.660;23.342;2023-03-04T07:06:01;65502.94;;;-143.54;100.00
8049;BME280;20935;42.660;23.342;2023-03-04T07:08:48;65502.94;;;-143.54;100.00
8049;BME280;20935;42.660;23.342;2023-03-04T07:11:34;65502.94;;;-143.54;100.00
8049;BME280;20935;42.660;23.342;2023-03-04T07:14:19;65502.94;;;-143.54;100.00
8049;BME280;20935;42.660;23.342;2023-03-04T07:17:05;65502.94;;;-143.54;100.00
8049;BME280;20935;42.660;23.342;2023-03-04T07:19:50;65502.94;;;-143.54;100.00
8049;BME280;20935;42.660;23.342;2023-03-04T07:22:35;65502.94;;;-143.54;100.00
8049;BME280;20935;42.660;23.342;2023-03-04T07:25:22;65502.94;;;-143.54;100.00
8049;BME280;20935;42.660;23.342;2023-03-04T07:28:08;65502.94;;;-143.54;100.00
8049;BME280;20935;42.660;23.342;2023-03-04T07:30:53;65502.94;;;-143.54;100.00
8049;BME280;20935;42.660;23.342;2023-03-04T07:33:39;65502.94;;;-143.54;100.00
8049;BME280;20935;42.660;23.342;2023-03-04T07:36:24;65502.94;;;-143.54;100.00
8049;BME280;20935;42.660;23.342;2023-03-04T07:39:11;65502.94;;;-143.54;100.00
8049;BME280;20935;42.660;23.342;2023-03-04T07:41:58;65502.94;;;-143.54;100.00
8049;BME280;20935;42.660;23.342;2023-03-04T07:44:44;65502.94;;;-143.54;100.00
8049;BME280;20935;42.660;23.342;2023-03-04T07:47:29;65502.94;;;-143.54;100.00
8049;BME280;20935;42.660;23.342;2023-03-04T07:50:15;65502.94;;;-143.54;100.00
8049;BME280;20935;42.660;23.342;2023-03-04T07:53:00;65502.94;;;-143.54;100.00
8049;BME280;20935;42.660;23.342;2023-03-04T07:55:46;65502.94;;;-143.54;100.00
8049;BME280;20935;42.660;23.342;2023-03-04T07:58:34;65502.94;;;-143.54;100.00
8049;BME280;20935;42.660;23.342;2023-03-04T08:01:21;65502.94;;;-143.54;100.00
8049;BME280;20935;42.660;23.342;2023-03-04T08:04:07;65502.94;;;-143.54;100.00
8049;BME280;20935;42.660;23.342;2023-03-04T08:06:53;65502.94;;;-143.54;100.00
8049;BME280;20935;42.660;23.342;2023-03-04T08:09:38;65502.94;;;-143.54;100.00
8049;BME280;20935;42.660;23.342;2023-03-04T08:12:24;65502.94;;;-143.54;100.00
8049;BME280;20935;42.660;23.342;2023-03-04T08:15:12;65502.94;;;-143.54;100.00
8049;BME280;20935;42.660;23.342;2023-03-04T08:17:58;65502.94;;;-143.54;100.00
8049;BME280;20935;42.660;23.342;2023-03-04T08:20:43;65502.94;;;-143.54;100.00
8049;BME280;20935;42.660;23.342;2023-03-04T08:23:29;65502.94;;;-143.54;100.00
8049;BME280;20935;42.660;23.342;2023-03-04T08:26:17;65502.94;;;-143.54;100.00
8049;BME280;20935;42.660;23.342;2023-03-04T08:29:04;65502.94;;;-143.54;100.00
8049;BME280;20935;42.660;23.342;2023-03-04T08:31:52;65502.94;;;-143.54;100.00
8049;BME280;20935;42.660;23.342;2023-03-04T08:34:38;65502.94;;;-143.54;100.00
8049;BME280;20935;42.660;23.342;2023-03-04T08:37:24;65502.94;;;-143.54;100.00
8049;BME280;20935;42.660;23.342;2023-03-04T08:40:11;65502.94;;;-143.54;100.00
8049;BME280;20935;42.660;23.342;2023-03-04T08:42:57;65502.94;;;-143.54;100.00
8049;BME280;20935;42.660;23.342;2023-03-04T08:45:42;65502.94;;;-143.54;100.00
8049;BME280;20935;42.660;23.342;2023-03-04T08:48:29;65502.94;;;-143.54;100.00
8049;BME280;20935;42.660;23.342;2023-03-04T08:51:14;65502.94;;;-143.54;100.00
8049;BME280;20935;42.660;23.342;2023-03-04T08:54:01;65502.94;;;-143.54;100.00
8049;BME280;20935;42.660;23.342;2023-03-04T08:56:47;65502.94;;;-143.54;100.00
8049;BME280;20935;42.660;23.342;2023-03-04T08:59:32;65502.94;;;-143.54;100.00
8049;BME280;20935;42.660;23.342;2023-03-04T09:02:18;65502.94;;;-143.54;100.00
8049;BME280;20935;42.660;23.342;2023-03-04T09:05:06;65502.94;;;-143.54;100.00
8049;BME280;20935;42.660;23.342;2023-03-04T09:07:51;65502.94;;;-143.54;100.00
8049;BME280;20935;42.660;23.342;2023-03-04T09:10:37;65502.94;;;-143.54;100.00
8049;BME280;20935;42.660;23.342;2023-03-04T09:13:23;65502.94;;;-143.54;100.00
8049;BME280;20935;42.660;23.342;2023-03-04T09:16:12;65502.94;;;-143.54;100.00
8049;BME280;20935;42.660;23.342;2023-03-04T09:18:59;65502.94;;;-143.54;100.00
8049;BME280;20935;42.660;23.342;2023-03-04T09:21:46;65502.94;;;-143.54;100.00
8049;BME280;20935;42.660;23.342;2023-03-04T09:24:31;65502.94;;;-143.54;100.00
8049;BME280;20935;42.660;23.342;2023-03-04T09:27:17;65502.94;;;-143.54;100.00
8049;BME280;20935;42.660;23.342;2023-03-04T09:30:06;65502.94;;;-143.54;100.00
8049;BME280;20935;42.660;23.342;2023-03-04T09:32:51;65502.94;;;-143.54;100.00
8049;BME280;20935;42.660;23.342;2023-03-04T09:35:37;65502.94;;;-143.54;100.00
8049;BME280;20935;42.660;23.342;2023-03-04T09:38:24;65502.94;;;-143.54;100.00
8049;BME280;20935;42.660;23.342;2023-03-04T09:41:15;65502.94;;;-143.54;100.00
8049;BME280;20935;42.660;23.342;2023-03-04T09:44:04;65502.94;;;-143.54;100.00
8049;BME280;20935;42.660;23.342;2023-03-04T09:46:55;65502.94;;;-143.54;100.00
8049;BME280;20935;42.660;23.342;2023-03-04T09:49:45;65502.94;;;-143.54;100.00
8049;BME280;20935;42.660;23.342;2023-03-04T09:52:43;65502.94;;;-143.54;100.00
8049;BME280;20935;42.660;23.342;2023-03-04T09:55:38;65502.94;;;-143.54;100.00
8049;BME280;20935;42.660;23.342;2023-03-04T09:58:36;65502.94;;;-143.54;100.00
8049;BME280;20935;42.660;23.342;2023-03-04T10:01:28;65502.94;;;-143.54;100.00
8049;BME280;20935;42.660;23.342;2023-03-04T10:04:17;65502.94;;;-143.54;100.00
8049;BME280;20935;42.660;23.342;2023-03-04T10:07:09;65502.94;;;-143.54;100.00
8049;BME280;20935;42.660;23.342;2023-03-04T10:10:00;65502.94;;;-143.54;100.00
8049;BME280;20935;42.660;23.342;2023-03-04T10:12:49;65502.94;;;-143.54;100.00
8049;BME280;20935;42.660;23.342;2023-03-04T10:15:39;65502.94;;;-143.54;100.00
8049;BME280;20935;42.660;23.342;2023-03-04T10:18:29;65502.94;;;-143.54;100.00
8049;BME280;20935;42.660;23.342;2023-03-04T10:21:21;65502.94;;;-143.54;100.00
8049;BME280;20935;42.660;23.342;2023-03-04T10:24:10;65502.94;;;-143.54;100.00
8049;BME280;20935;42.660;23.342;2023-03-04T10:27:00;65502.94;;;-143.54;100.00
8049;BME280;20935;42.660;23.342;2023-03-04T10:32:29;94671.28;;;9.69;95.38
8049;BME280;20935;42.660;23.342;2023-03-04T10:35:22;94663.25;;;9.76;93.38
8049;BME280;20935;42.660;23.342;2023-03-04T10:38:12;94671.59;;;9.88;93.85
8049;BME280;20935;42.660;23.342;2023-03-04T10:40:58;94664.25;;;10.03;92.78
8049;BME280;20935;42.660;23.342;2023-03-04T10:43:49;94659.44;;;10.39;91.43
8049;BME280;20935;42.660;23.342;2023-03-04T10:46:37;94653.94;;;10.60;88.41
8049;BME280;20935;42.660;23.342;2023-03-04T10:49:25;94650.88;;;10.00;92.91
8049;BME280;20935;42.660;23.342;2023-03-04T10:52:18;94644.94;;;10.36;90.17
8049;BME280;20935;42.660;23.342;2023-03-04T10:55:14;94643.75;;;9.75;93.45
8049;BME280;20935;42.660;23.342;2023-03-04T10:58:03;94636.91;;;10.36;93.53
8049;BME280;20935;42.660;23.342;2023-03-04T11:00:58;94637.84;;;10.09;91.63
8049;BME280;20935;42.660;23.342;2023-03-04T11:03:47;94636.75;;;9.96;95.03
8049;BME280;20935;42.660;23.342;2023-03-04T11:06:39;94619.28;;;10.39;94.49
8049;BME280;20935;42.660;23.342;2023-03-04T11:09:27;94620.94;;;10.26;91.48
8049;BME280;20935;42.660;23.342;2023-03-04T11:12:15;94616.53;;;9.95;92.16
8049;BME280;20935;42.660;23.342;2023-03-04T11:15:02;94612.06;;;9.74;95.23
8049;BME280;20935;42.660;23.342;2023-03-04T11:17:49;94615.63;;;10.22;91.75
8049;BME280;20935;42.660;23.342;2023-03-04T11:20:40;94598.84;;;10.59;88.09
8049;BME280;20935;42.660;23.342;2023-03-04T11:23:32;94595.66;;;10.34;88.31
8049;BME280;20935;42.660;23.342;2023-03-04T11:26:23;94598.59;;;9.88;92.13
8049;BME280;20935;42.660;23.342;2023-03-04T11:29:13;94584.78;;;9.24;97.18
8049;BME280;20935;42.660;23.342;2023-03-04T11:32:05;94585.31;;;10.32;91.52
8049;BME280;20935;42.660;23.342;2023-03-04T11:35:00;94580.31;;;10.79;88.33
8049;BME280;20935;42.660;23.342;2023-03-04T11:37:53;94575.94;;;10.03;91.31
8049;BME280;20935;42.660;23.342;2023-03-04T11:40:46;94577.78;;;10.20;92.17
8049;BME280;20935;42.660;23.342;2023-03-04T11:43:35;94571.09;;;10.43;91.91
8049;BME280;20935;42.660;23.342;2023-03-04T11:46:36;94570.88;;;10.23;93.66
8049;BME280;20935;42.660;23.342;2023-03-04T11:49:48;94566.28;;;9.65;95.12
8049;BME280;20935;42.660;23.342;2023-03-04T11:52:48;94555.72;;;9.36;98.10
8049;BME280;20935;42.660;23.342;2023-03-04T11:55:40;94558.84;;;9.31;97.81
8049;BME280;20935;42.660;23.342;2023-03-04T12:01:52;94552.09;;;9.75;98.33
8049;BME280;20935;42.660;23.342;2023-03-04T12:05:02;94555.78;;;9.91;95.30
8049;BME280;20935;42.660;23.342;2023-03-04T12:08:20;94547.88;;;10.29;92.89
8049;BME280;20935;42.660;23.342;2023-03-04T12:11:11;94545.44;;;10.45;89.82
8049;BME280;20935;42.660;23.342;2023-03-04T12:14:11;94544.28;;;10.46;89.41
8049;BME280;20935;42.660;23.342;2023-03-04T12:17:29;94538.91;;;10.02;91.25
8049;BME280;20935;42.660;23.342;2023-03-04T12:20:40;94532.31;;;10.17;91.94
8049;BME280;20935;42.660;23.342;2023-03-04T12:23:43;94527.16;;;10.36;92.88
8049;BME280;20935;42.660;23.342;2023-03-04T12:26:37;94532.75;;;10.53;90.10
8049;BME280;20935;42.660;23.342;2023-03-04T12:29:32;94536.06;;;10.64;90.06
8049;BME280;20935;42.660;23.342;2023-03-04T12:32:27;94527.81;;;10.48;90.99
8049;BME280;20935;42.660;23.342;2023-03-04T12:35:36;94517.47;;;10.05;93.52
8049;BME280;20935;42.660;23.342;2023-03-04T12:38:29;94517.84;;;10.04;94.28
8049;BME280;20935;42.660;23.342;2023-03-04T12:41:26;94523.56;;;10.09;93.67
8049;BME280;20935;42.660;23.342;2023-03-04T12:44:15;94514.03;;;10.05;94.56
8049;BME280;20935;42.660;23.342;2023-03-04T12:47:16;94514.97;;;10.32;93.04
8049;BME280;20935;42.660;23.342;2023-03-04T12:50:24;94515.09;;;10.18;92.44
8049;BME280;20935;42.660;23.342;2023-03-04T12:53:21;94503.53;;;10.28;92.70
8049;BME280;20935;42.660;23.342;2023-03-04T12:56:21;94503.03;;;10.40;91.28
8049;BME280;20935;42.660;23.342;2023-03-04T12:59:13;94501.69;;;10.21;90.91
8049;BME280;20935;42.660;23.342;2023-03-04T13:02:10;94489.59;;;10.03;93.89
8049;BME280;20935;42.660;23.342;2023-03-04T13:05:17;94489.03;;;9.77;95.28
8049;BME280;20935;42.660;23.342;2023-03-04T13:08:12;94485.53;;;10.32;93.11
8049;BME280;20935;42.660;23.342;2023-03-04T13:11:01;94485.56;;;10.66;89.54
8049;BME280;20935;42.660;23.342;2023-03-04T13:14:00;94477.66;;;10.52;89.51
8049;BME280;20935;42.660;23.342;2023-03-04T13:16:47;94472.88;;;10.36;90.57
8049;BME280;20935;42.660;23.342;2023-03-04T13:19:50;94471.06;;;10.26;90.89
8049;BME280;20935;42.660;23.342;2023-03-04T13:22:49;94464.22;;;10.21;91.80
8049;BME280;20935;42.660;23.342;2023-03-04T13:25:39;94471.53;;;10.14;90.89
8049;BME280;20935;42.660;23.342;2023-03-04T13:28:27;94464.03;;;10.43;90.93
8049;BME280;20935;42.660;23.342;2023-03-04T13:31:20;94468.47;;;10.19;92.13
8049;BME280;20935;42.660;23.342;2023-03-04T13:37:32;94466.28;;;10.44;89.63
8049;BME280;20935;42.660;23.342;2023-03-04T13:40:36;94459.22;;;9.75;94.58
8049;BME280;20935;42.660;23.342;2023-03-04T13:43:27;94467.75;;;10.15;93.58
8049;BME280;20935;42.660;23.342;2023-03-04T13:46:30;94456.97;;;10.22;92.14
8049;BME280;20935;42.660;23.342;2023-03-04T13:49:23;94460.66;;;10.35;90.14
8049;BME280;20935;42.660;23.342;2023-03-04T13:52:33;94457.09;;;10.04;92.15
8049;BME280;20935;42.660;23.342;2023-03-04T13:55:37;94446.84;;;9.51;97.28
8049;BME280;20935;42.660;23.342;2023-03-04T13:58:26;94441.66;;;9.78;97.85
8049;BME280;20935;42.660;23.342;2023-03-04T14:01:24;94447.94;;;10.02;97.49
8049;BME280;20935;42.660;23.342;2023-03-04T14:04:16;94438.19;;;9.81;98.68
8049;BME280;20935;42.660;23.342;2023-03-04T14:07:03;94433.59;;;9.81;98.72
8049;BME280;20935;42.660;23.342;2023-03-04T14:10:02;94434.59;;;9.54;100.00
8049;BME280;20935;42.660;23.342;2023-03-04T14:12:54;94434.19;;;9.59;100.00
8049;BME280;20935;42.660;23.342;2023-03-04T14:15:40;94428.66;;;9.76;99.98
8049;BME280;20935;42.660;23.342;2023-03-04T14:18:26;94431.91;;;10.02;98.36
8049;BME280;20935;42.660;23.342;2023-03-04T14:21:13;94429.84;;;10.16;97.04
8049;BME280;20935;42.660;23.342;2023-03-04T14:24:02;94422.31;;;10.04;96.27
8049;BME280;20935;42.660;23.342;2023-03-04T14:26:48;94421.50;;;10.11;96.62
8049;BME280;20935;42.660;23.342;2023-03-04T14:29:35;94420.22;;;10.26;95.57
8049;BME280;20935;42.660;23.342;2023-03-04T14:32:21;94420.06;;;10.40;94.24
8049;BME280;20935;42.660;23.342;2023-03-04T14:35:18;94417.97;;;10.21;95.77
8049;BME280;20935;42.660;23.342;2023-03-04T14:38:06;94416.81;;;10.22;95.34